sensor_id;sensor_type;location;lat;lon;timestamp;pressure;altitude;pressure_sealevel;temperature
40199;BMP280;25906;43.536;26.068;2024-01-27T00:02:04;99281.69;;;1.73
40199;BMP280;25906;43.536;26.068;2024-01-27T00:04:50;99269.94;;;1.63
40199;BMP280;25906;43.536;26.068;2024-01-27T00:07:35;99266.84;;;1.58
40199;BMP280;25906;43.536;26.068;2024-01-27T00:10:21;99272.97;;;1.65
40199;BMP280;25906;43.536;26.068;2024-01-27T00:13:06;99272.38;;;1.56
40199;BMP280;25906;43.536;26.068;2024-01-27T00:15:52;99276.84;;;1.55
40199;BMP280;25906;43.536;26.068;2024-01-27T00:18:40;99263.22;;;1.46
40199;BMP280;25906;43.536;26.068;2024-01-27T00:21:26;99266.88;;;1.42
40199;BMP280;25906;43.536;26.068;2024-01-27T00:24:13;99272.28;;;1.52
40199;BMP280;25906;43.536;26.068;2024-01-27T00:27:00;99269.97;;;1.47
40199;BMP280;25906;43.536;26.068;2024-01-27T00:29:45;99270.56;;;1.41
40199;BMP280;25906;43.536;26.068;2024-01-27T00:32:31;99272.75;;;1.39
40199;BMP280;25906;43.536;26.068;2024-01-27T00:35:16;99286.75;;;1.31
40199;BMP280;25906;43.536;26.068;2024-01-27T00:38:02;99285.44;;;1.56
40199;BMP280;25906;43.536;26.068;2024-01-27T00:40:47;99286.81;;;1.69
40199;BMP280;25906;43.536;26.068;2024-01-27T00:43:33;99272.16;;;1.80
40199;BMP280;25906;43.536;26.068;2024-01-27T00:46:18;99267.16;;;1.56
40199;BMP280;25906;43.536;26.068;2024-01-27T00:49:04;99256.25;;;1.50
40199;BMP280;25906;43.536;26.068;2024-01-27T00:51:49;99252.84;;;1.31
40199;BMP280;25906;43.536;26.068;2024-01-27T00:54:35;99257.94;;;1.43
40199;BMP280;25906;43.536;26.068;2024-01-27T00:57:20;99262.47;;;1.46
40199;BMP280;25906;43.536;26.068;2024-01-27T01:00:07;99254.16;;;1.40
40199;BMP280;25906;43.536;26.068;2024-01-27T01:02:53;99250.19;;;1.46
40199;BMP280;25906;43.536;26.068;2024-01-27T01:05:39;99241.47;;;1.39
40199;BMP280;25906;43.536;26.068;2024-01-27T01:08:24;99239.13;;;1.34
40199;BMP280;25906;43.536;26.068;2024-01-27T01:11:10;99236.88;;;1.32
40199;BMP280;25906;43.536;26.068;2024-01-27T01:13:55;99229.22;;;1.24
40199;BMP280;25906;43.536;26.068;2024-01-27T01:16:41;99222.78;;;1.17
40199;BMP280;25906;43.536;26.068;2024-01-27T01:19:26;99217.22;;;1.19
40199;BMP280;25906;43.536;26.068;2024-01-27T01:22:12;99217.66;;;1.05
40199;BMP280;25906;43.536;26.068;2024-01-27T01:24:58;99209.16;;;1.08
40199;BMP280;25906;43.536;26.068;2024-01-27T01:27:43;99201.78;;;1.10
40199;BMP280;25906;43.536;26.068;2024-01-27T01:30:29;99188.22;;;1.05
40199;BMP280;25906;43.536;26.068;2024-01-27T01:33:14;99190.78;;;1.01
40199;BMP280;25906;43.536;26.068;2024-01-27T01:36:00;99189.41;;;1.07
40199;BMP280;25906;43.536;26.068;2024-01-27T01:38:46;99181.78;;;0.83
40199;BMP280;25906;43.536;26.068;2024-01-27T01:41:32;99184.63;;;0.94
40199;BMP280;25906;43.536;26.068;2024-01-27T01:44:17;99187.06;;;1.02
40199;BMP280;25906;43.536;26.068;2024-01-27T01:47:03;99173.47;;;0.93
40199;BMP280;25906;43.536;26.068;2024-01-27T01:49:49;99178.16;;;1.03
40199;BMP280;25906;43.536;26.068;2024-01-27T01:52:37;99191.22;;;0.88
40199;BMP280;25906;43.536;26.068;2024-01-27T01:55:23;99185.25;;;0.87
40199;BMP280;25906;43.536;26.068;2024-01-27T01:58:08;99193.06;;;0.87
40199;BMP280;25906;43.536;26.068;2024-01-27T02:00:54;99195.13;;;0.82
40199;BMP280;25906;43.536;26.068;2024-01-27T02:03:40;99194.53;;;0.88
40199;BMP280;25906;43.536;26.068;2024-01-27T02:06:25;99188.69;;;0.75
40199;BMP280;25906;43.536;26.068;2024-01-27T02:09:11;99181.69;;;0.95
40199;BMP280;25906;43.536;26.068;2024-01-27T02:11:56;99178.81;;;1.00
40199;BMP280;25906;43.536;26.068;2024-01-27T02:14:41;99192.34;;;1.06
40199;BMP280;25906;43.536;26.068;2024-01-27T02:17:27;99191.91;;;1.04
40199;BMP280;25906;43.536;26.068;2024-01-27T02:20:12;99181.44;;;1.00
40199;BMP280;25906;43.536;26.068;2024-01-27T02:22:58;99178.72;;;0.97
40199;BMP280;25906;43.536;26.068;2024-01-27T02:25:43;99175.94;;;1.05
40199;BMP280;25906;43.536;26.068;2024-01-27T02:28:29;99177.78;;;1.21
40199;BMP280;25906;43.536;26.068;2024-01-27T02:31:17;99184.09;;;1.39
40199;BMP280;25906;43.536;26.068;2024-01-27T02:34:02;99179.63;;;1.20
40199;BMP280;25906;43.536;26.068;2024-01-27T02:36:48;99172.91;;;1.38
40199;BMP280;25906;43.536;26.068;2024-01-27T02:39:33;99170.31;;;1.38
40199;BMP280;25906;43.536;26.068;2024-01-27T02:42:19;99172.09;;;1.34
40199;BMP280;25906;43.536;26.068;2024-01-27T02:45:04;99176.16;;;1.32
40199;BMP280;25906;43.536;26.068;2024-01-27T02:47:50;99167.97;;;1.52
40199;BMP280;25906;43.536;26.068;2024-01-27T02:50:35;99170.59;;;1.33
40199;BMP280;25906;43.536;26.068;2024-01-27T02:53:21;99164.47;;;1.45
40199;BMP280;25906;43.536;26.068;2024-01-27T02:56:07;99170.09;;;1.47
40199;BMP280;25906;43.536;26.068;2024-01-27T02:58:55;99171.06;;;1.39
40199;BMP280;25906;43.536;26.068;2024-01-27T03:01:40;99165.84;;;1.39
40199;BMP280;25906;43.536;26.068;2024-01-27T03:04:26;99168.41;;;1.35
40199;BMP280;25906;43.536;26.068;2024-01-27T03:07:11;99156.88;;;1.55
40199;BMP280;25906;43.536;26.068;2024-01-27T03:09:57;99162.09;;;1.55
40199;BMP280;25906;43.536;26.068;2024-01-27T03:12:43;99152.06;;;1.58
40199;BMP280;25906;43.536;26.068;2024-01-27T03:15:28;99144.91;;;1.54
40199;BMP280;25906;43.536;26.068;2024-01-27T03:18:14;99155.34;;;1.54
40199;BMP280;25906;43.536;26.068;2024-01-27T03:20:59;99154.72;;;1.61
40199;BMP280;25906;43.536;26.068;2024-01-27T03:23:45;99154.53;;;1.50
40199;BMP280;25906;43.536;26.068;2024-01-27T03:26:30;99150.22;;;1.58
40199;BMP280;25906;43.536;26.068;2024-01-27T03:29:16;99137.03;;;1.70
40199;BMP280;25906;43.536;26.068;2024-01-27T03:32:01;99128.66;;;1.61
40199;BMP280;25906;43.536;26.068;2024-01-27T03:34:47;99114.47;;;1.59
40199;BMP280;25906;43.536;26.068;2024-01-27T03:37:32;99098.06;;;1.58
40199;BMP280;25906;43.536;26.068;2024-01-27T03:40:18;99089.41;;;1.54
40199;BMP280;25906;43.536;26.068;2024-01-27T03:43:03;99093.94;;;1.57
40199;BMP280;25906;43.536;26.068;2024-01-27T03:45:49;99098.59;;;1.48
40199;BMP280;25906;43.536;26.068;2024-01-27T03:48:34;99096.41;;;1.50
40199;BMP280;25906;43.536;26.068;2024-01-27T03:51:20;99095.78;;;1.56
40199;BMP280;25906;43.536;26.068;2024-01-27T03:54:06;99103.47;;;1.69
40199;BMP280;25906;43.536;26.068;2024-01-27T03:56:51;99108.19;;;1.82
40199;BMP280;25906;43.536;26.068;2024-01-27T03:59:40;99125.78;;;1.66
40199;BMP280;25906;43.536;26.068;2024-01-27T04:02:26;99120.56;;;1.47
40199;BMP280;25906;43.536;26.068;2024-01-27T04:05:11;99117.75;;;1.75
40199;BMP280;25906;43.536;26.068;2024-01-27T04:07:57;99101.34;;;1.74
40199;BMP280;25906;43.536;26.068;2024-01-27T04:10:42;99095.16;;;1.82
40199;BMP280;25906;43.536;26.068;2024-01-27T04:13:27;99095.78;;;1.99
40199;BMP280;25906;43.536;26.068;2024-01-27T04:16:14;99091.34;;;2.03
40199;BMP280;25906;43.536;26.068;2024-01-27T04:18:59;99091.78;;;2.05
40199;BMP280;25906;43.536;26.068;2024-01-27T04:21:45;99098.09;;;2.04
40199;BMP280;25906;43.536;26.068;2024-01-27T04:24:30;99103.88;;;1.93
40199;BMP280;25906;43.536;26.068;2024-01-27T04:27:16;99090.56;;;1.99
40199;BMP280;25906;43.536;26.068;2024-01-27T04:30:01;99090.56;;;1.99
40199;BMP280;25906;43.536;26.068;2024-01-27T04:32:47;99089.09;;;2.01
40199;BMP280;25906;43.536;26.068;2024-01-27T04:35:34;99077.44;;;1.95
40199;BMP280;25906;43.536;26.068;2024-01-27T04:38:20;99070.03;;;1.97
40199;BMP280;25906;43.536;26.068;2024-01-27T04:41:05;99062.72;;;2.06
40199;BMP280;25906;43.536;26.068;2024-01-27T04:43:51;99064.50;;;2.02
40199;BMP280;25906;43.536;26.068;2024-01-27T04:46:38;99079.19;;;2.10
40199;BMP280;25906;43.536;26.068;2024-01-27T04:49:23;99076.91;;;2.09
40199;BMP280;25906;43.536;26.068;2024-01-27T04:52:09;99063.06;;;2.05
40199;BMP280;25906;43.536;26.068;2024-01-27T04:54:54;99073.03;;;2.22
40199;BMP280;25906;43.536;26.068;2024-01-27T04:57:40;99080.97;;;2.29
40199;BMP280;25906;43.536;26.068;2024-01-27T05:00:26;99066.59;;;2.16
40199;BMP280;25906;43.536;26.068;2024-01-27T05:03:13;99067.06;;;2.21
40199;BMP280;25906;43.536;26.068;2024-01-27T05:05:59;99067.91;;;2.29
40199;BMP280;25906;43.536;26.068;2024-01-27T05:08:44;99062.72;;;2.32
40199;BMP280;25906;43.536;26.068;2024-01-27T05:11:32;99066.31;;;2.21
40199;BMP280;25906;43.536;26.068;2024-01-27T05:14:17;99069.44;;;2.33
40199;BMP280;25906;43.536;26.068;2024-01-27T05:17:03;99055.97;;;2.31
40199;BMP280;25906;43.536;26.068;2024-01-27T05:19:51;99053.53;;;2.42
40199;BMP280;25906;43.536;26.068;2024-01-27T05:22:37;99047.75;;;2.56
40199;BMP280;25906;43.536;26.068;2024-01-27T05:25:22;99048.06;;;2.51
40199;BMP280;25906;43.536;26.068;2024-01-27T05:28:08;99036.94;;;2.54
40199;BMP280;25906;43.536;26.068;2024-01-27T05:30:53;99033.56;;;2.53
40199;BMP280;25906;43.536;26.068;2024-01-27T05:33:39;99034.75;;;2.59
40199;BMP280;25906;43.536;26.068;2024-01-27T05:36:25;99042.59;;;2.59
40199;BMP280;25906;43.536;26.068;2024-01-27T05:39:10;99035.09;;;2.58
40199;BMP280;25906;43.536;26.068;2024-01-27T05:41:56;99043.00;;;2.65
40199;BMP280;25906;43.536;26.068;2024-01-27T05:44:41;99045.63;;;2.61
40199;BMP280;25906;43.536;26.068;2024-01-27T05:47:27;99042.41;;;2.75
40199;BMP280;25906;43.536;26.068;2024-01-27T05:50:12;99047.63;;;2.75
40199;BMP280;25906;43.536;26.068;2024-01-27T05:52:58;99045.84;;;2.83
40199;BMP280;25906;43.536;26.068;2024-01-27T05:55:43;99044.00;;;2.83
40199;BMP280;25906;43.536;26.068;2024-01-27T05:58:31;99049.56;;;2.82
40199;BMP280;25906;43.536;26.068;2024-01-27T06:01:19;99044.34;;;2.82
40199;BMP280;25906;43.536;26.068;2024-01-27T06:04:05;99051.09;;;2.83
40199;BMP280;25906;43.536;26.068;2024-01-27T06:06:50;99047.72;;;2.82
40199;BMP280;25906;43.536;26.068;2024-01-27T06:09:37;99043.75;;;2.95
40199;BMP280;25906;43.536;26.068;2024-01-27T06:12:22;99032.03;;;2.82
40199;BMP280;25906;43.536;26.068;2024-01-27T06:15:08;99046.56;;;3.09
40199;BMP280;25906;43.536;26.068;2024-01-27T06:17:55;99038.22;;;3.00
40199;BMP280;25906;43.536;26.068;2024-01-27T06:20:40;99037.97;;;3.12
40199;BMP280;25906;43.536;26.068;2024-01-27T06:23:26;99040.00;;;3.26
40199;BMP280;25906;43.536;26.068;2024-01-27T06:26:12;99040.31;;;3.21
40199;BMP280;25906;43.536;26.068;2024-01-27T06:28:58;99041.44;;;3.20
40199;BMP280;25906;43.536;26.068;2024-01-27T06:31:43;99033.34;;;3.32
40199;BMP280;25906;43.536;26.068;2024-01-27T06:34:29;99046.41;;;3.32
40199;BMP280;25906;43.536;26.068;2024-01-27T06:37:14;99050.19;;;3.35
40199;BMP280;25906;43.536;26.068;2024-01-27T06:39:59;99046.88;;;3.41
40199;BMP280;25906;43.536;26.068;2024-01-27T06:42:45;99062.94;;;3.43
40199;BMP280;25906;43.536;26.068;2024-01-27T06:45:30;99051.38;;;3.44
40199;BMP280;25906;43.536;26.068;2024-01-27T06:48:16;99056.38;;;3.60
40199;BMP280;25906;43.536;26.068;2024-01-27T06:51:01;99047.91;;;3.74
40199;BMP280;25906;43.536;26.068;2024-01-27T06:53:47;99044.25;;;3.82
40199;BMP280;25906;43.536;26.068;2024-01-27T06:56:33;99040.50;;;3.83
40199;BMP280;25906;43.536;26.068;2024-01-27T06:59:19;99033.03;;;3.85
40199;BMP280;25906;43.536;26.068;2024-01-27T07:02:04;99032.59;;;3.72
40199;BMP280;25906;43.536;26.068;2024-01-27T07:04:50;99043.78;;;3.73
40199;BMP280;25906;43.536;26.068;2024-01-27T07:07:36;99030.69;;;3.73
40199;BMP280;25906;43.536;26.068;2024-01-27T07:10:21;99038.53;;;3.73
40199;BMP280;25906;43.536;26.068;2024-01-27T07:13:07;99034.84;;;3.77
40199;BMP280;25906;43.536;26.068;2024-01-27T07:15:52;99040.38;;;3.65
40199;BMP280;25906;43.536;26.068;2024-01-27T07:18:38;99031.38;;;3.63
40199;BMP280;25906;43.536;26.068;2024-01-27T07:21:23;99039.91;;;3.59
40199;BMP280;25906;43.536;26.068;2024-01-27T07:24:09;99040.25;;;3.54
40199;BMP280;25906;43.536;26.068;2024-01-27T07:26:55;99048.50;;;3.56
40199;BMP280;25906;43.536;26.068;2024-01-27T07:29:40;99045.03;;;3.42
40199;BMP280;25906;43.536;26.068;2024-01-27T07:32:26;99054.41;;;3.46
40199;BMP280;25906;43.536;26.068;2024-01-27T07:35:11;99041.66;;;3.45
40199;BMP280;25906;43.536;26.068;2024-01-27T07:37:57;99040.81;;;3.34
40199;BMP280;25906;43.536;26.068;2024-01-27T07:40:42;99034.50;;;3.38
40199;BMP280;25906;43.536;26.068;2024-01-27T07:43:28;99046.84;;;3.38
40199;BMP280;25906;43.536;26.068;2024-01-27T07:46:13;99040.44;;;3.35
40199;BMP280;25906;43.536;26.068;2024-01-27T07:48:58;99046.69;;;3.24
40199;BMP280;25906;43.536;26.068;2024-01-27T07:51:44;99050.03;;;3.21
40199;BMP280;25906;43.536;26.068;2024-01-27T07:54:30;99041.88;;;3.29
40199;BMP280;25906;43.536;26.068;2024-01-27T07:57:16;99044.84;;;3.28
40199;BMP280;25906;43.536;26.068;2024-01-27T08:00:02;99053.16;;;3.37
40199;BMP280;25906;43.536;26.068;2024-01-27T08:02:48;99040.78;;;3.30
40199;BMP280;25906;43.536;26.068;2024-01-27T08:05:34;99044.22;;;3.38
40199;BMP280;25906;43.536;26.068;2024-01-27T08:08:19;99049.31;;;3.27
40199;BMP280;25906;43.536;26.068;2024-01-27T08:11:04;99051.56;;;3.25
40199;BMP280;25906;43.536;26.068;2024-01-27T08:13:50;99053.41;;;3.25
40199;BMP280;25906;43.536;26.068;2024-01-27T08:16:36;99051.59;;;3.29
40199;BMP280;25906;43.536;26.068;2024-01-27T08:19:21;99055.34;;;3.31
40199;BMP280;25906;43.536;26.068;2024-01-27T08:22:07;99061.38;;;3.35
40199;BMP280;25906;43.536;26.068;2024-01-27T08:24:54;99062.44;;;3.31
40199;BMP280;25906;43.536;26.068;2024-01-27T08:27:39;99056.13;;;3.35
40199;BMP280;25906;43.536;26.068;2024-01-27T08:30:25;99058.16;;;3.49
40199;BMP280;25906;43.536;26.068;2024-01-27T08:33:10;99055.25;;;3.57
40199;BMP280;25906;43.536;26.068;2024-01-27T08:35:56;99064.28;;;3.64
40199;BMP280;25906;43.536;26.068;2024-01-27T08:38:41;99063.16;;;3.65
40199;BMP280;25906;43.536;26.068;2024-01-27T08:41:27;99065.34;;;3.59
40199;BMP280;25906;43.536;26.068;2024-01-27T08:44:12;99077.72;;;3.62
40199;BMP280;25906;43.536;26.068;2024-01-27T08:46:58;99075.94;;;3.73
40199;BMP280;25906;43.536;26.068;2024-01-27T08:49:43;99077.94;;;3.87
40199;BMP280;25906;43.536;26.068;2024-01-27T08:52:28;99074.50;;;3.79
40199;BMP280;25906;43.536;26.068;2024-01-27T08:55:14;99075.66;;;3.85
40199;BMP280;25906;43.536;26.068;2024-01-27T08:58:04;99076.84;;;3.91
40199;BMP280;25906;43.536;26.068;2024-01-27T09:00:49;99079.56;;;4.06
40199;BMP280;25906;43.536;26.068;2024-01-27T09:03:35;99082.34;;;3.79
40199;BMP280;25906;43.536;26.068;2024-01-27T09:06:21;99073.09;;;3.89
40199;BMP280;25906;43.536;26.068;2024-01-27T09:09:06;99077.25;;;3.97
40199;BMP280;25906;43.536;26.068;2024-01-27T09:11:51;99081.75;;;4.00
40199;BMP280;25906;43.536;26.068;2024-01-27T09:14:37;99078.34;;;3.92
40199;BMP280;25906;43.536;26.068;2024-01-27T09:17:22;99082.84;;;3.99
40199;BMP280;25906;43.536;26.068;2024-01-27T09:20:09;99082.16;;;4.02
40199;BMP280;25906;43.536;26.068;2024-01-27T09:22:55;99081.72;;;3.96
40199;BMP280;25906;43.536;26.068;2024-01-27T09:25:41;99080.25;;;3.99
40199;BMP280;25906;43.536;26.068;2024-01-27T09:28:26;99075.88;;;4.10
40199;BMP280;25906;43.536;26.068;2024-01-27T09:31:12;99083.00;;;4.17
40199;BMP280;25906;43.536;26.068;2024-01-27T09:33:57;99079.56;;;4.06
40199;BMP280;25906;43.536;26.068;2024-01-27T09:36:43;99078.91;;;4.19
40199;BMP280;25906;43.536;26.068;2024-01-27T09:39:28;99078.53;;;4.14
40199;BMP280;25906;43.536;26.068;2024-01-27T09:42:14;99078.19;;;4.22
40199;BMP280;25906;43.536;26.068;2024-01-27T09:45:02;99073.72;;;4.26
40199;BMP280;25906;43.536;26.068;2024-01-27T09:47:49;99075.50;;;4.15
40199;BMP280;25906;43.536;26.068;2024-01-27T09:50:35;99084.19;;;4.26
40199;BMP280;25906;43.536;26.068;2024-01-27T09:53:20;99071.03;;;4.12
40199;BMP280;25906;43.536;26.068;2024-01-27T09:56:06;99071.50;;;4.28
40199;BMP280;25906;43.536;26.068;2024-01-27T09:58:51;99073.69;;;4.23
40199;BMP280;25906;43.536;26.068;2024-01-27T10:01:40;99064.03;;;4.30
40199;BMP280;25906;43.536;26.068;2024-01-27T10:04:26;99074.53;;;4.37
40199;BMP280;25906;43.536;26.068;2024-01-27T10:07:12;99067.16;;;4.54
40199;BMP280;25906;43.536;26.068;2024-01-27T10:09:58;99079.13;;;4.58
40199;BMP280;25906;43.536;26.068;2024-01-27T10:12:44;99087.34;;;4.57
40199;BMP280;25906;43.536;26.068;2024-01-27T10:15:30;99085.50;;;4.54
40199;BMP280;25906;43.536;26.068;2024-01-27T10:18:16;99092.69;;;4.67
40199;BMP280;25906;43.536;26.068;2024-01-27T10:21:17;99089.25;;;4.60
40199;BMP280;25906;43.536;26.068;2024-01-27T10:24:05;99102.75;;;4.62
40199;BMP280;25906;43.536;26.068;2024-01-27T10:26:59;99097.97;;;4.81
40199;BMP280;25906;43.536;26.068;2024-01-27T10:29:56;99097.25;;;4.85
40199;BMP280;25906;43.536;26.068;2024-01-27T10:32:41;99099.53;;;4.86
40199;BMP280;25906;43.536;26.068;2024-01-27T10:35:29;99099.47;;;4.82
40199;BMP280;25906;43.536;26.068;2024-01-27T10:38:14;99107.44;;;5.00
40199;BMP280;25906;43.536;26.068;2024-01-27T10:41:00;99105.88;;;4.92
40199;BMP280;25906;43.536;26.068;2024-01-27T10:43:47;99106.28;;;4.98
40199;BMP280;25906;43.536;26.068;2024-01-27T10:46:35;99115.31;;;5.11
40199;BMP280;25906;43.536;26.068;2024-01-27T10:49:22;99114.50;;;4.89
40199;BMP280;25906;43.536;26.068;2024-01-27T10:52:11;99124.69;;;5.08
40199;BMP280;25906;43.536;26.068;2024-01-27T10:55:01;99128.50;;;5.25
40199;BMP280;25906;43.536;26.068;2024-01-27T10:57:48;99125.78;;;5.00
40199;BMP280;25906;43.536;26.068;2024-01-27T11:00:36;99122.81;;;5.12
40199;BMP280;25906;43.536;26.068;2024-01-27T11:03:22;99134.06;;;5.13
40199;BMP280;25906;43.536;26.068;2024-01-27T11:06:09;99127.41;;;5.33
40199;BMP280;25906;43.536;26.068;2024-01-27T11:08:57;99127.00;;;5.35
40199;BMP280;25906;43.536;26.068;2024-01-27T11:11:45;99129.63;;;5.24
40199;BMP280;25906;43.536;26.068;2024-01-27T11:14:31;99125.19;;;5.49
40199;BMP280;25906;43.536;26.068;2024-01-27T11:17:16;99134.22;;;5.66
40199;BMP280;25906;43.536;26.068;2024-01-27T11:20:03;99138.31;;;5.60
40199;BMP280;25906;43.536;26.068;2024-01-27T11:22:49;99125.97;;;5.64
40199;BMP280;25906;43.536;26.068;2024-01-27T11:25:34;99127.84;;;5.78
40199;BMP280;25906;43.536;26.068;2024-01-27T11:28:25;99127.44;;;5.58
40199;BMP280;25906;43.536;26.068;2024-01-27T11:31:11;99130.06;;;5.58
40199;BMP280;25906;43.536;26.068;2024-01-27T11:33:58;99143.19;;;5.58
40199;BMP280;25906;43.536;26.068;2024-01-27T11:36:44;99142.81;;;5.66
40199;BMP280;25906;43.536;26.068;2024-01-27T11:39:30;99143.56;;;5.53
40199;BMP280;25906;43.536;26.068;2024-01-27T11:42:16;99144.31;;;5.50
40199;BMP280;25906;43.536;26.068;2024-01-27T11:45:01;99145.78;;;5.40
40199;BMP280;25906;43.536;26.068;2024-01-27T11:47:47;99146.94;;;5.53
40199;BMP280;25906;43.536;26.068;2024-01-27T11:50:32;99148.06;;;5.52
40199;BMP280;25906;43.536;26.068;2024-01-27T11:53:18;99141.69;;;5.50
40199;BMP280;25906;43.536;26.068;2024-01-27T11:56:04;99140.56;;;5.54
40199;BMP280;25906;43.536;26.068;2024-01-27T11:58:50;99152.94;;;5.54
40199;BMP280;25906;43.536;26.068;2024-01-27T12:01:36;99146.97;;;5.64
40199;BMP280;25906;43.536;26.068;2024-01-27T12:04:22;99157.88;;;5.80
40199;BMP280;25906;43.536;26.068;2024-01-27T12:07:07;99168.75;;;5.93
40199;BMP280;25906;43.536;26.068;2024-01-27T12:09:54;99178.50;;;5.85
40199;BMP280;25906;43.536;26.068;2024-01-27T12:12:40;99191.28;;;5.87
40199;BMP280;25906;43.536;26.068;2024-01-27T12:15:25;99196.88;;;5.82
40199;BMP280;25906;43.536;26.068;2024-01-27T12:18:11;99201.75;;;5.80
40199;BMP280;25906;43.536;26.068;2024-01-27T12:20:57;99204.03;;;5.99
40199;BMP280;25906;43.536;26.068;2024-01-27T12:23:53;99205.16;;;6.01
40199;BMP280;25906;43.536;26.068;2024-01-27T12:26:40;99208.50;;;5.91
40199;BMP280;25906;43.536;26.068;2024-01-27T12:29:27;99199.88;;;5.80
40199;BMP280;25906;43.536;26.068;2024-01-27T12:32:14;99213.75;;;5.91
40199;BMP280;25906;43.536;26.068;2024-01-27T12:35:07;99220.13;;;5.90
40199;BMP280;25906;43.536;26.068;2024-01-27T12:37:53;99214.88;;;5.90
40199;BMP280;25906;43.536;26.068;2024-01-27T12:40:38;99213.06;;;5.98
40199;BMP280;25906;43.536;26.068;2024-01-27T12:43:24;99223.94;;;5.96
40199;BMP280;25906;43.536;26.068;2024-01-27T12:46:09;99223.16;;;5.89
40199;BMP280;25906;43.536;26.068;2024-01-27T12:48:57;99217.16;;;5.95
40199;BMP280;25906;43.536;26.068;2024-01-27T12:51:42;99227.66;;;5.95
40199;BMP280;25906;43.536;26.068;2024-01-27T12:54:27;99220.53;;;5.89
40199;BMP280;25906;43.536;26.068;2024-01-27T12:57:13;99229.19;;;6.10
40199;BMP280;25906;43.536;26.068;2024-01-27T12:59:58;99225.78;;;6.03
40199;BMP280;25906;43.536;26.068;2024-01-27T13:02:44;99233.66;;;6.06
40199;BMP280;25906;43.536;26.068;2024-01-27T13:05:29;99227.31;;;5.97
40199;BMP280;25906;43.536;26.068;2024-01-27T13:08:14;99232.56;;;6.04
40199;BMP280;25906;43.536;26.068;2024-01-27T13:11:00;99242.31;;;6.07
40199;BMP280;25906;43.536;26.068;2024-01-27T13:13:45;99253.94;;;5.95
40199;BMP280;25906;43.536;26.068;2024-01-27T13:16:31;99249.44;;;6.06
40199;BMP280;25906;43.536;26.068;2024-01-27T13:19:16;99240.81;;;6.09
40199;BMP280;25906;43.536;26.068;2024-01-27T13:22:02;99259.59;;;6.19
40199;BMP280;25906;43.536;26.068;2024-01-27T13:24:48;99259.59;;;6.12
40199;BMP280;25906;43.536;26.068;2024-01-27T13:27:34;99260.34;;;6.12
40199;BMP280;25906;43.536;26.068;2024-01-27T13:30:19;99261.06;;;6.02
40199;BMP280;25906;43.536;26.068;2024-01-27T13:33:05;99266.72;;;5.97
40199;BMP280;25906;43.536;26.068;2024-01-27T13:35:50;99268.59;;;5.96
40199;BMP280;25906;43.536;26.068;2024-01-27T13:38:36;99267.47;;;6.12
40199;BMP280;25906;43.536;26.068;2024-01-27T13:41:23;99273.13;;;6.14
40199;BMP280;25906;43.536;26.068;2024-01-27T13:44:08;99273.09;;;5.96
40199;BMP280;25906;43.536;26.068;2024-01-27T13:46:53;99276.47;;;6.00
40199;BMP280;25906;43.536;26.068;2024-01-27T13:49:39;99271.53;;;5.91
40199;BMP280;25906;43.536;26.068;2024-01-27T13:52:25;99274.53;;;5.72
40199;BMP280;25906;43.536;26.068;2024-01-27T13:55:11;99264.75;;;5.73
40199;BMP280;25906;43.536;26.068;2024-01-27T13:57:56;99276.78;;;5.84
40199;BMP280;25906;43.536;26.068;2024-01-27T14:00:42;99273.44;;;5.94
40199;BMP280;25906;43.536;26.068;2024-01-27T14:03:27;99275.72;;;5.96
40199;BMP280;25906;43.536;26.068;2024-01-27T14:06:13;99273.81;;;5.93
40199;BMP280;25906;43.536;26.068;2024-01-27T14:08:58;99276.75;;;5.70
40199;BMP280;25906;43.536;26.068;2024-01-27T14:11:44;99284.69;;;5.84
40199;BMP280;25906;43.536;26.068;2024-01-27T14:14:29;99284.31;;;5.89
40199;BMP280;25906;43.536;26.068;2024-01-27T14:17:15;99285.09;;;5.97
40199;BMP280;25906;43.536;26.068;2024-01-27T14:20:00;99291.84;;;5.94
40199;BMP280;25906;43.536;26.068;2024-01-27T14:22:46;99290.66;;;5.71
40199;BMP280;25906;43.536;26.068;2024-01-27T14:25:32;99285.34;;;5.63
40199;BMP280;25906;43.536;26.068;2024-01-27T14:28:17;99277.50;;;5.71
40199;BMP280;25906;43.536;26.068;2024-01-27T14:31:03;99280.09;;;5.67
40199;BMP280;25906;43.536;26.068;2024-01-27T14:33:48;99282.78;;;5.78
40199;BMP280;25906;43.536;26.068;2024-01-27T14:36:34;99280.47;;;5.62
40199;BMP280;25906;43.536;26.068;2024-01-27T14:39:19;99286.13;;;5.75
40199;BMP280;25906;43.536;26.068;2024-01-27T14:42:05;99290.66;;;5.71
40199;BMP280;25906;43.536;26.068;2024-01-27T14:44:53;99292.47;;;5.66
40199;BMP280;25906;43.536;26.068;2024-01-27T14:47:40;99287.19;;;5.59
40199;BMP280;25906;43.536;26.068;2024-01-27T14:50:26;99290.91;;;5.51
40199;BMP280;25906;43.536;26.068;2024-01-27T14:53:11;99293.94;;;5.53
40199;BMP280;25906;43.536;26.068;2024-01-27T14:55:57;99296.56;;;5.50
40199;BMP280;25906;43.536;26.068;2024-01-27T14:58:42;99304.41;;;5.46
40199;BMP280;25906;43.536;26.068;2024-01-27T15:01:28;99295.41;;;5.47
40199;BMP280;25906;43.536;26.068;2024-01-27T15:04:13;99305.50;;;5.45
40199;BMP280;25906;43.536;26.068;2024-01-27T15:06:59;99303.56;;;5.24
40199;BMP280;25906;43.536;26.068;2024-01-27T15:09:44;99306.22;;;5.32
40199;BMP280;25906;43.536;26.068;2024-01-27T15:12:30;99305.09;;;5.33
40199;BMP280;25906;43.536;26.068;2024-01-27T15:15:15;99307.31;;;5.31
40199;BMP280;25906;43.536;26.068;2024-01-27T15:18:01;99302.75;;;5.20
40199;BMP280;25906;43.536;26.068;2024-01-27T15:20:46;99293.00;;;5.17
40199;BMP280;25906;43.536;26.068;2024-01-27T15:23:32;99309.16;;;5.26
40199;BMP280;25906;43.536;26.068;2024-01-27T15:26:19;99320.78;;;5.29
40199;BMP280;25906;43.536;26.068;2024-01-27T15:29:04;99325.72;;;5.34
40199;BMP280;25906;43.536;26.068;2024-01-27T15:31:50;99338.84;;;5.38
40199;BMP280;25906;43.536;26.068;2024-01-27T15:34:35;99339.63;;;5.42
40199;BMP280;25906;43.536;26.068;2024-01-27T15:37:21;99345.22;;;5.37
40199;BMP280;25906;43.536;26.068;2024-01-27T15:40:07;99339.78;;;5.08
40199;BMP280;25906;43.536;26.068;2024-01-27T15:42:54;99344.41;;;5.25
40199;BMP280;25906;43.536;26.068;2024-01-27T15:45:41;99353.38;;;5.21
40199;BMP280;25906;43.536;26.068;2024-01-27T15:48:26;99352.66;;;5.24
40199;BMP280;25906;43.536;26.068;2024-01-27T15:51:13;99351.41;;;5.07
40199;BMP280;25906;43.536;26.068;2024-01-27T15:53:58;99357.03;;;5.09
40199;BMP280;25906;43.536;26.068;2024-01-27T15:56:44;99359.66;;;5.09